sensor_id;sensor_type;location;lat;lon;timestamp;noise_LAeq;noise_LA_min;noise_LA_max;noise_LA01;noise_LA95
66335;Laerm;53138;51.496;6.410;2022-12-10T00:00:04;34.40;32.00;38.19;;
66335;Laerm;53138;51.496;6.410;2022-12-10T00:00:15;33.42;31.79;35.43;;
66335;Laerm;53138;51.496;6.410;2022-12-10T00:00:25;33.00;31.05;35.19;;
66335;Laerm;53138;51.496;6.410;2022-12-10T00:00:35;32.53;30.68;34.47;;
66335;Laerm;53138;51.496;6.410;2022-12-10T00:00:46;32.33;30.95;34.49;;
66335;Laerm;53138;51.496;6.410;2022-12-10T00:01:06;32.83;31.41;34.73;;
66335;Laerm;53138;51.496;6.410;2022-12-10T00:01:18;39.33;31.17;44.06;;
66335;Laerm;53138;51.496;6.410;2022-12-10T00:01:29;35.45;32.87;38.41;;
66335;Laerm;53138;51.496;6.410;2022-12-10T00:01:40;33.61;31.82;35.83;;
66335;Laerm;53138;51.496;6.410;2022-12-10T00:01:51;33.56;31.88;35.24;;
66335;Laerm;53138;51.496;6.410;2022-12-10T00:02:01;34.75;31.53;38.49;;
66335;Laerm;53138;51.496;6.410;2022-12-10T00:02:12;34.18;32.26;36.14;;
66335;Laerm;53138;51.496;6.410;2022-12-10T00:02:22;37.45;33.46;45.26;;
66335;Laerm;53138;51.496;6.410;2022-12-10T00:02:32;43.30;36.42;48.78;;
66335;Laerm;53138;51.496;6.410;2022-12-10T00:02:42;36.71;32.76;40.68;;
66335;Laerm;53138;51.496;6.410;2022-12-10T00:02:52;33.27;31.20;35.62;;
66335;Laerm;53138;51.496;6.410;2022-12-10T00:03:03;32.96;31.34;35.13;;
66335;Laerm;53138;51.496;6.410;2022-12-10T00:03:13;32.76;31.06;35.24;;
66335;Laerm;53138;51.496;6.410;2022-12-10T00:03:23;32.93;31.29;34.91;;
66335;Laerm;53138;51.496;6.410;2022-12-10T00:03:33;33.08;31.43;35.08;;
66335;Laerm;53138;51.496;6.410;2022-12-10T00:03:44;34.21;31.68;37.13;;
66335;Laerm;53138;51.496;6.410;2022-12-10T00:03:54;42.01;35.00;47.25;;
66335;Laerm;53138;51.496;6.410;2022-12-10T00:04:05;36.15;33.53;38.82;;
66335;Laerm;53138;51.496;6.410;2022-12-10T00:04:15;35.36;33.54;38.00;;
66335;Laerm;53138;51.496;6.410;2022-12-10T00:04:25;38.46;34.43;41.42;;
66335;Laerm;53138;51.496;6.410;2022-12-10T00:04:35;36.59;33.90;38.90;;
66335;Laerm;53138;51.496;6.410;2022-12-10T00:04:46;35.43;33.18;38.63;;
66335;Laerm;53138;51.496;6.410;2022-12-10T00:04:56;39.05;34.48;45.48;;
66335;Laerm;53138;51.496;6.410;2022-12-10T00:05:06;38.96;34.73;42.68;;
66335;Laerm;53138;51.496;6.410;2022-12-10T00:05:17;42.45;37.75;46.27;;
66335;Laerm;53138;51.496;6.410;2022-12-10T00:05:27;45.03;38.47;50.42;;
66335;Laerm;53138;51.496;6.410;2022-12-10T00:05:37;39.33;35.13;45.25;;
66335;Laerm;53138;51.496;6.410;2022-12-10T00:05:47;41.78;35.23;47.66;;
66335;Laerm;53138;51.496;6.410;2022-12-10T00:06:04;42.10;34.22;48.43;;
66335;Laerm;53138;51.496;6.410;2022-12-10T00:06:19;35.07;31.78;41.04;;
66335;Laerm;53138;51.496;6.410;2022-12-10T00:06:30;38.27;32.80;43.46;;
66335;Laerm;53138;51.496;6.410;2022-12-10T00:06:41;34.94;33.11;37.22;;
66335;Laerm;53138;51.496;6.410;2022-12-10T00:06:51;35.06;31.77;40.44;;
66335;Laerm;53138;51.496;6.410;2022-12-10T00:07:01;33.99;31.75;35.90;;
66335;Laerm;53138;51.496;6.410;2022-12-10T00:07:11;32.71;31.22;34.04;;
66335;Laerm;53138;51.496;6.410;2022-12-10T00:07:22;32.86;30.89;35.13;;
66335;Laerm;53138;51.496;6.410;2022-12-10T00:07:32;33.39;31.70;35.19;;
66335;Laerm;53138;51.496;6.410;2022-12-10T00:07:42;35.86;32.20;39.46;;
66335;Laerm;53138;51.496;6.410;2022-12-10T00:07:52;35.78;33.53;39.36;;
66335;Laerm;53138;51.496;6.410;2022-12-10T00:08:02;41.41;36.21;45.83;;
66335;Laerm;53138;51.496;6.410;2022-12-10T00:08:13;41.20;37.20;44.71;;
66335;Laerm;53138;51.496;6.410;2022-12-10T00:08:23;43.56;38.26;47.92;;
66335;Laerm;53138;51.496;6.410;2022-12-10T00:08:34;36.43;33.73;40.04;;
66335;Laerm;53138;51.496;6.410;2022-12-10T00:08:44;34.52;32.02;37.49;;
66335;Laerm;53138;51.496;6.410;2022-12-10T00:08:54;33.62;31.56;35.70;;
66335;Laerm;53138;51.496;6.410;2022-12-10T00:09:05;32.74;31.15;35.13;;
66335;Laerm;53138;51.496;6.410;2022-12-10T00:09:16;33.30;31.42;35.59;;
66335;Laerm;53138;51.496;6.410;2022-12-10T00:09:27;34.50;32.15;36.35;;
66335;Laerm;53138;51.496;6.410;2022-12-10T00:09:37;36.49;33.04;40.37;;
66335;Laerm;53138;51.496;6.410;2022-12-10T00:09:48;35.50;33.12;38.33;;
66335;Laerm;53138;51.496;6.410;2022-12-10T00:09:58;38.82;34.40;44.47;;
66335;Laerm;53138;51.496;6.410;2022-12-10T00:10:08;41.49;36.77;45.61;;
66335;Laerm;53138;51.496;6.410;2022-12-10T00:10:19;38.00;33.31;43.10;;
66335;Laerm;53138;51.496;6.410;2022-12-10T00:10:29;34.21;32.23;36.65;;
66335;Laerm;53138;51.496;6.410;2022-12-10T00:10:39;34.35;32.13;36.85;;
66335;Laerm;53138;51.496;6.410;2022-12-10T00:10:49;34.48;32.44;39.00;;
66335;Laerm;53138;51.496;6.410;2022-12-10T00:11:02;34.23;32.21;36.22;;
66335;Laerm;53138;51.496;6.410;2022-12-10T00:11:13;33.73;31.65;36.22;;
66335;Laerm;53138;51.496;6.410;2022-12-10T00:11:23;33.14;31.16;35.49;;
66335;Laerm;53138;51.496;6.410;2022-12-10T00:11:34;40.13;32.56;45.28;;
66335;Laerm;53138;51.496;6.410;2022-12-10T00:11:44;41.39;36.72;45.60;;
66335;Laerm;53138;51.496;6.410;2022-12-10T00:11:54;38.10;35.54;41.84;;
66335;Laerm;53138;51.496;6.410;2022-12-10T00:12:04;38.61;35.63;41.94;;
66335;Laerm;53138;51.496;6.410;2022-12-10T00:12:14;36.91;34.41;39.46;;
66335;Laerm;53138;51.496;6.410;2022-12-10T00:12:25;39.36;35.62;43.03;;
66335;Laerm;53138;51.496;6.410;2022-12-10T00:12:35;38.26;34.94;41.19;;
66335;Laerm;53138;51.496;6.410;2022-12-10T00:12:45;39.35;35.47;45.45;;
66335;Laerm;53138;51.496;6.410;2022-12-10T00:12:55;41.40;36.82;45.44;;
66335;Laerm;53138;51.496;6.410;2022-12-10T00:13:05;35.81;33.83;38.86;;
66335;Laerm;53138;51.496;6.410;2022-12-10T00:13:16;35.97;32.88;38.25;;
66335;Laerm;53138;51.496;6.410;2022-12-10T00:13:26;36.89;33.28;40.39;;
66335;Laerm;53138;51.496;6.410;2022-12-10T00:13:36;37.27;34.45;41.13;;
66335;Laerm;53138;51.496;6.410;2022-12-10T00:13:47;41.14;35.52;47.48;;
66335;Laerm;53138;51.496;6.410;2022-12-10T00:13:57;38.86;33.89;45.22;;
66335;Laerm;53138;51.496;6.410;2022-12-10T00:14:08;39.86;35.60;43.13;;
66335;Laerm;53138;51.496;6.410;2022-12-10T00:14:19;39.39;35.49;43.07;;
66335;Laerm;53138;51.496;6.410;2022-12-10T00:14:29;42.58;37.56;48.13;;
66335;Laerm;53138;51.496;6.410;2022-12-10T00:14:39;42.14;38.09;45.85;;
66335;Laerm;53138;51.496;6.410;2022-12-10T00:14:50;44.25;37.50;49.99;;
66335;Laerm;53138;51.496;6.410;2022-12-10T00:15:00;38.41;35.04;41.86;;
66335;Laerm;53138;51.496;6.410;2022-12-10T00:15:10;38.12;33.02;44.20;;
66335;Laerm;53138;51.496;6.410;2022-12-10T00:15:20;36.61;33.22;39.43;;
66335;Laerm;53138;51.496;6.410;2022-12-10T00:15:34;41.32;33.72;46.70;;
66335;Laerm;53138;51.496;6.410;2022-12-10T00:15:44;39.53;32.38;46.80;;
66335;Laerm;53138;51.496;6.410;2022-12-10T00:15:54;34.45;32.61;36.74;;
66335;Laerm;53138;51.496;6.410;2022-12-10T00:16:05;40.38;34.25;46.76;;
66335;Laerm;53138;51.496;6.410;2022-12-10T00:16:16;37.67;34.38;43.32;;
66335;Laerm;53138;51.496;6.410;2022-12-10T00:16:27;41.33;34.74;47.89;;
66335;Laerm;53138;51.496;6.410;2022-12-10T00:16:38;39.31;34.91;44.84;;
66335;Laerm;53138;51.496;6.410;2022-12-10T00:16:48;45.44;39.56;49.66;;
66335;Laerm;53138;51.496;6.410;2022-12-10T00:16:58;41.88;35.56;45.75;;
66335;Laerm;53138;51.496;6.410;2022-12-10T00:17:08;42.70;36.48;47.46;;
66335;Laerm;53138;51.496;6.410;2022-12-10T00:17:19;45.19;39.47;49.37;;
66335;Laerm;53138;51.496;6.410;2022-12-10T00:17:29;43.54;37.64;48.08;;
66335;Laerm;53138;51.496;6.410;2022-12-10T00:17:39;34.91;31.69;39.69;;
66335;Laerm;53138;51.496;6.410;2022-12-10T00:17:49;32.31;31.03;33.48;;
66335;Laerm;53138;51.496;6.410;2022-12-10T00:17:59;32.10;30.29;34.23;;
66335;Laerm;53138;51.496;6.410;2022-12-10T00:18:09;31.27;29.99;32.75;;
66335;Laerm;53138;51.496;6.410;2022-12-10T00:18:20;31.65;30.32;33.88;;
66335;Laerm;53138;51.496;6.410;2022-12-10T00:18:30;31.64;29.86;35.20;;
66335;Laerm;53138;51.496;6.410;2022-12-10T00:18:40;31.42;30.09;33.53;;
66335;Laerm;53138;51.496;6.410;2022-12-10T00:18:51;31.11;29.40;32.41;;
66335;Laerm;53138;51.496;6.410;2022-12-10T00:19:02;31.00;29.49;32.43;;
66335;Laerm;53138;51.496;6.410;2022-12-10T00:19:12;31.03;29.45;33.90;;
66335;Laerm;53138;51.496;6.410;2022-12-10T00:19:22;31.13;29.68;34.52;;
66335;Laerm;53138;51.496;6.410;2022-12-10T00:19:33;31.20;29.60;32.83;;
66335;Laerm;53138;51.496;6.410;2022-12-10T00:19:43;30.91;29.12;32.34;;
66335;Laerm;53138;51.496;6.410;2022-12-10T00:19:53;30.96;29.52;33.44;;
66335;Laerm;53138;51.496;6.410;2022-12-10T00:20:03;30.85;29.53;32.16;;
66335;Laerm;53138;51.496;6.410;2022-12-10T00:20:14;30.88;29.21;32.39;;
66335;Laerm;53138;51.496;6.410;2022-12-10T00:20:24;30.91;29.60;32.31;;
66335;Laerm;53138;51.496;6.410;2022-12-10T00:20:35;30.86;29.70;32.70;;
66335;Laerm;53138;51.496;6.410;2022-12-10T00:20:46;30.97;29.38;32.38;;
66335;Laerm;53138;51.496;6.410;2022-12-10T00:20:56;31.50;29.76;33.58;;
66335;Laerm;53138;51.496;6.410;2022-12-10T00:21:10;31.23;29.78;32.88;;
66335;Laerm;53138;51.496;6.410;2022-12-10T00:21:22;32.64;30.07;36.71;;
66335;Laerm;53138;51.496;6.410;2022-12-10T00:21:33;37.82;33.45;43.65;;
66335;Laerm;53138;51.496;6.410;2022-12-10T00:21:43;41.35;32.12;49.75;;
66335;Laerm;53138;51.496;6.410;2022-12-10T00:21:54;38.99;33.73;47.16;;
66335;Laerm;53138;51.496;6.410;2022-12-10T00:22:04;42.02;33.22;50.18;;
66335;Laerm;53138;51.496;6.410;2022-12-10T00:22:14;32.01;30.28;34.52;;
66335;Laerm;53138;51.496;6.410;2022-12-10T00:22:25;31.76;29.79;33.20;;
66335;Laerm;53138;51.496;6.410;2022-12-10T00:22:35;31.23;29.74;32.71;;
66335;Laerm;53138;51.496;6.410;2022-12-10T00:22:45;31.43;29.99;32.73;;
66335;Laerm;53138;51.496;6.410;2022-12-10T00:22:55;31.70;30.22;33.81;;
66335;Laerm;53138;51.496;6.410;2022-12-10T00:23:05;31.66;29.19;33.11;;
66335;Laerm;53138;51.496;6.410;2022-12-10T00:23:15;31.99;30.64;33.50;;
66335;Laerm;53138;51.496;6.410;2022-12-10T00:23:26;33.90;30.95;37.71;;
66335;Laerm;53138;51.496;6.410;2022-12-10T00:23:36;33.88;31.48;36.19;;
66335;Laerm;53138;51.496;6.410;2022-12-10T00:23:46;32.44;30.29;34.31;;
66335;Laerm;53138;51.496;6.410;2022-12-10T00:23:56;32.66;30.45;35.22;;
66335;Laerm;53138;51.496;6.410;2022-12-10T00:24:07;32.82;30.83;34.78;;
66335;Laerm;53138;51.496;6.410;2022-12-10T00:24:17;34.12;31.60;36.97;;
66335;Laerm;53138;51.496;6.410;2022-12-10T00:24:27;36.30;33.57;39.48;;
66335;Laerm;53138;51.496;6.410;2022-12-10T00:24:38;36.82;31.72;41.48;;
66335;Laerm;53138;51.496;6.410;2022-12-10T00:24:48;34.90;32.92;37.47;;
66335;Laerm;53138;51.496;6.410;2022-12-10T00:24:58;40.93;35.23;46.51;;
66335;Laerm;53138;51.496;6.410;2022-12-10T00:25:08;42.00;34.32;47.81;;
66335;Laerm;53138;51.496;6.410;2022-12-10T00:25:18;33.53;30.96;36.57;;
66335;Laerm;53138;51.496;6.410;2022-12-10T00:25:29;33.29;30.95;35.93;;
66335;Laerm;53138;51.496;6.410;2022-12-10T00:25:39;33.77;31.70;35.72;;
66335;Laerm;53138;51.496;6.410;2022-12-10T00:25:49;33.55;31.56;35.42;;
66335;Laerm;53138;51.496;6.410;2022-12-10T00:26:06;33.96;31.89;36.96;;
66335;Laerm;53138;51.496;6.410;2022-12-10T00:26:18;33.74;31.64;36.21;;
66335;Laerm;53138;51.496;6.410;2022-12-10T00:26:32;33.08;31.01;35.74;;
66335;Laerm;53138;51.496;6.410;2022-12-10T00:26:43;32.82;30.71;35.18;;
66335;Laerm;53138;51.496;6.410;2022-12-10T00:26:55;33.05;30.94;35.77;;
66335;Laerm;53138;51.496;6.410;2022-12-10T00:27:05;33.00;30.86;37.86;;
66335;Laerm;53138;51.496;6.410;2022-12-10T00:27:16;32.73;30.04;36.10;;
66335;Laerm;53138;51.496;6.410;2022-12-10T00:27:26;32.75;30.25;35.68;;
66335;Laerm;53138;51.496;6.410;2022-12-10T00:27:36;32.96;30.60;37.05;;
66335;Laerm;53138;51.496;6.410;2022-12-10T00:27:46;33.21;30.87;35.70;;
66335;Laerm;53138;51.496;6.410;2022-12-10T00:27:56;33.35;31.34;35.40;;
66335;Laerm;53138;51.496;6.410;2022-12-10T00:28:07;33.78;31.53;37.34;;
66335;Laerm;53138;51.496;6.410;2022-12-10T00:28:17;34.08;31.52;37.60;;
66335;Laerm;53138;51.496;6.410;2022-12-10T00:28:27;33.55;31.18;37.04;;
66335;Laerm;53138;51.496;6.410;2022-12-10T00:28:37;33.62;31.33;36.07;;
66335;Laerm;53138;51.496;6.410;2022-12-10T00:28:48;33.79;31.33;36.61;;
66335;Laerm;53138;51.496;6.410;2022-12-10T00:28:59;33.69;31.36;36.48;;
66335;Laerm;53138;51.496;6.410;2022-12-10T00:29:11;33.01;30.90;36.70;;
66335;Laerm;53138;51.496;6.410;2022-12-10T00:29:21;32.60;30.90;34.86;;
66335;Laerm;53138;51.496;6.410;2022-12-10T00:29:31;32.43;30.87;34.30;;
66335;Laerm;53138;51.496;6.410;2022-12-10T00:29:42;32.28;30.28;34.38;;
66335;Laerm;53138;51.496;6.410;2022-12-10T00:29:52;32.50;30.91;34.48;;
66335;Laerm;53138;51.496;6.410;2022-12-10T00:30:03;34.33;31.12;40.29;;
66335;Laerm;53138;51.496;6.410;2022-12-10T00:30:13;33.64;31.50;35.45;;
66335;Laerm;53138;51.496;6.410;2022-12-10T00:30:23;33.57;31.39;36.51;;
66335;Laerm;53138;51.496;6.410;2022-12-10T00:30:34;34.09;31.16;36.63;;
66335;Laerm;53138;51.496;6.410;2022-12-10T00:30:44;33.00;31.34;34.73;;
66335;Laerm;53138;51.496;6.410;2022-12-10T00:30:54;32.67;31.00;34.55;;
66335;Laerm;53138;51.496;6.410;2022-12-10T00:31:08;31.76;30.05;34.19;;
66335;Laerm;53138;51.496;6.410;2022-12-10T00:31:23;32.32;30.31;34.21;;
66335;Laerm;53138;51.496;6.410;2022-12-10T00:31:34;33.69;30.35;37.14;;
66335;Laerm;53138;51.496;6.410;2022-12-10T00:31:45;36.44;33.24;40.26;;
66335;Laerm;53138;51.496;6.410;2022-12-10T00:31:55;42.39;35.27;49.57;;
66335;Laerm;53138;51.496;6.410;2022-12-10T00:32:05;43.54;37.50;48.29;;
66335;Laerm;53138;51.496;6.410;2022-12-10T00:32:16;39.17;32.73;43.21;;
66335;Laerm;53138;51.496;6.410;2022-12-10T00:32:26;39.11;33.80;44.05;;
66335;Laerm;53138;51.496;6.410;2022-12-10T00:32:36;37.39;33.45;44.49;;
66335;Laerm;53138;51.496;6.410;2022-12-10T00:32:46;34.98;32.77;38.98;;
66335;Laerm;53138;51.496;6.410;2022-12-10T00:32:56;37.42;34.79;40.32;;
66335;Laerm;53138;51.496;6.410;2022-12-10T00:33:06;37.49;34.79;41.37;;
66335;Laerm;53138;51.496;6.410;2022-12-10T00:33:17;45.56;37.81;50.30;;
66335;Laerm;53138;51.496;6.410;2022-12-10T00:33:27;46.96;42.09;51.07;;
66335;Laerm;53138;51.496;6.410;2022-12-10T00:33:37;44.79;36.21;50.79;;
66335;Laerm;53138;51.496;6.410;2022-12-10T00:33:48;37.26;34.77;40.66;;
66335;Laerm;53138;51.496;6.410;2022-12-10T00:33:59;37.37;34.18;40.79;;
66335;Laerm;53138;51.496;6.410;2022-12-10T00:34:10;36.50;33.81;40.18;;
66335;Laerm;53138;51.496;6.410;2022-12-10T00:34:20;37.88;34.51;41.87;;
66335;Laerm;53138;51.496;6.410;2022-12-10T00:34:30;35.84;33.11;40.63;;
66335;Laerm;53138;51.496;6.410;2022-12-10T00:34:41;35.93;32.76;38.86;;
66335;Laerm;53138;51.496;6.410;2022-12-10T00:34:51;37.49;34.20;41.46;;
66335;Laerm;53138;51.496;6.410;2022-12-10T00:35:01;37.54;34.75;41.12;;
66335;Laerm;53138;51.496;6.410;2022-12-10T00:35:11;45.88;39.59;51.76;;
66335;Laerm;53138;51.496;6.410;2022-12-10T00:35:21;46.11;35.92;54.10;;
66335;Laerm;53138;51.496;6.410;2022-12-10T00:35:34;33.05;30.30;37.30;;
66335;Laerm;53138;51.496;6.410;2022-12-10T00:35:45;31.24;29.71;33.29;;
66335;Laerm;53138;51.496;6.410;2022-12-10T00:35:55;31.35;29.75;34.58;;
66335;Laerm;53138;51.496;6.410;2022-12-10T00:36:07;31.23;29.54;33.44;;
66335;Laerm;53138;51.496;6.410;2022-12-10T00:36:19;31.29;29.74;33.05;;
66335;Laerm;53138;51.496;6.410;2022-12-10T00:36:30;31.58;29.94;33.56;;
66335;Laerm;53138;51.496;6.410;2022-12-10T00:36:42;31.88;30.29;33.98;;
66335;Laerm;53138;51.496;6.410;2022-12-10T00:36:53;31.91;29.82;33.79;;
66335;Laerm;53138;51.496;6.410;2022-12-10T00:37:04;32.03;29.93;33.43;;
66335;Laerm;53138;51.496;6.410;2022-12-10T00:37:14;32.50;31.03;34.48;;
66335;Laerm;53138;51.496;6.410;2022-12-10T00:37:24;35.13;32.14;38.04;;
66335;Laerm;53138;51.496;6.410;2022-12-10T00:37:34;34.55;31.98;38.23;;
66335;Laerm;53138;51.496;6.410;2022-12-10T00:37:44;36.34;33.37;39.76;;
66335;Laerm;53138;51.496;6.410;2022-12-10T00:37:54;43.58;36.75;50.48;;
66335;Laerm;53138;51.496;6.410;2022-12-10T00:38:05;42.72;35.86;47.52;;
66335;Laerm;53138;51.496;6.410;2022-12-10T00:38:15;37.15;33.63;41.53;;
66335;Laerm;53138;51.496;6.410;2022-12-10T00:38:25;32.97;30.52;36.17;;
66335;Laerm;53138;51.496;6.410;2022-12-10T00:38:35;33.24;30.77;36.04;;
66335;Laerm;53138;51.496;6.410;2022-12-10T00:38:46;33.06;30.99;35.74;;
66335;Laerm;53138;51.496;6.410;2022-12-10T00:38:56;33.27;30.95;36.27;;
66335;Laerm;53138;51.496;6.410;2022-12-10T00:39:07;32.83;30.75;34.70;;
66335;Laerm;53138;51.496;6.410;2022-12-10T00:39:18;32.87;30.74;35.33;;
66335;Laerm;53138;51.496;6.410;2022-12-10T00:39:29;32.95;30.91;35.51;;
66335;Laerm;53138;51.496;6.410;2022-12-10T00:39:39;32.72;30.69;35.20;;
66335;Laerm;53138;51.496;6.410;2022-12-10T00:39:49;32.67;30.53;35.87;;
66335;Laerm;53138;51.496;6.410;2022-12-10T00:40:00;34.34;31.53;38.10;;
66335;Laerm;53138;51.496;6.410;2022-12-10T00:40:10;34.19;32.16;37.31;;
66335;Laerm;53138;51.496;6.410;2022-12-10T00:40:23;33.89;31.62;36.54;;
66335;Laerm;53138;51.496;6.410;2022-12-10T00:40:33;34.25;31.25;38.28;;
66335;Laerm;53138;51.496;6.410;2022-12-10T00:40:43;35.16;32.12;39.10;;
66335;Laerm;53138;51.496;6.410;2022-12-10T00:40:53;33.77;31.27;37.04;;
66335;Laerm;53138;51.496;6.410;2022-12-10T00:41:03;34.08;31.92;37.71;;
66335;Laerm;53138;51.496;6.410;2022-12-10T00:41:14;34.75;31.61;37.81;;
66335;Laerm;53138;51.496;6.410;2022-12-10T00:41:24;32.99;31.03;35.25;;
66335;Laerm;53138;51.496;6.410;2022-12-10T00:41:34;34.19;31.79;38.23;;
66335;Laerm;53138;51.496;6.410;2022-12-10T00:41:45;39.66;33.18;44.83;;
66335;Laerm;53138;51.496;6.410;2022-12-10T00:41:55;37.83;33.88;43.51;;
66335;Laerm;53138;51.496;6.410;2022-12-10T00:42:05;39.55;33.09;45.72;;
66335;Laerm;53138;51.496;6.410;2022-12-10T00:42:15;33.22;31.29;35.95;;
66335;Laerm;53138;51.496;6.410;2022-12-10T00:42:25;32.62;30.72;35.52;;
66335;Laerm;53138;51.496;6.410;2022-12-10T00:42:36;32.53;30.34;35.01;;
66335;Laerm;53138;51.496;6.410;2022-12-10T00:42:46;32.63;30.60;35.48;;
66335;Laerm;53138;51.496;6.410;2022-12-10T00:42:56;32.57;30.21;35.41;;
66335;Laerm;53138;51.496;6.410;2022-12-10T00:43:06;32.73;30.56;39.20;;
66335;Laerm;53138;51.496;6.410;2022-12-10T00:43:17;32.69;30.38;36.54;;
66335;Laerm;53138;51.496;6.410;2022-12-10T00:43:27;32.66;30.94;35.34;;
66335;Laerm;53138;51.496;6.410;2022-12-10T00:43:37;32.19;30.18;35.15;;
66335;Laerm;53138;51.496;6.410;2022-12-10T00:43:48;32.94;30.06;50.22;;
66335;Laerm;53138;51.496;6.410;2022-12-10T00:43:58;31.43;29.81;33.45;;
66335;Laerm;53138;51.496;6.410;2022-12-10T00:44:08;31.47;29.96;33.67;;
66335;Laerm;53138;51.496;6.410;2022-12-10T00:44:18;31.10;29.46;32.52;;
66335;Laerm;53138;51.496;6.410;2022-12-10T00:44:29;31.18;29.24;33.42;;
66335;Laerm;53138;51.496;6.410;2022-12-10T00:44:39;30.44;29.03;32.00;;
66335;Laerm;53138;51.496;6.410;2022-12-10T00:44:51;31.24;29.60;33.64;;
66335;Laerm;53138;51.496;6.410;2022-12-10T00:45:02;30.27;29.12;32.31;;
66335;Laerm;53138;51.496;6.410;2022-12-10T00:45:12;30.18;28.54;38.15;;
66335;Laerm;53138;51.496;6.410;2022-12-10T00:45:22;30.06;28.73;32.18;;
66335;Laerm;53138;51.496;6.410;2022-12-10T00:45:33;30.17;29.07;36.48;;
66335;Laerm;53138;51.496;6.410;2022-12-10T00:45:43;29.90;28.58;31.06;;
66335;Laerm;53138;51.496;6.410;2022-12-10T00:45:53;30.05;28.93;33.93;;
66335;Laerm;53138;51.496;6.410;2022-12-10T00:46:03;30.21;28.56;31.22;;
66335;Laerm;53138;51.496;6.410;2022-12-10T00:46:14;29.98;28.80;31.14;;
66335;Laerm;53138;51.496;6.410;2022-12-10T00:46:25;30.04;28.49;31.32;;
66335;Laerm;53138;51.496;6.410;2022-12-10T00:46:35;30.53;28.81;32.78;;
66335;Laerm;53138;51.496;6.410;2022-12-10T00:46:45;30.69;29.32;32.41;;
66335;Laerm;53138;51.496;6.410;2022-12-10T00:46:56;32.07;29.91;35.52;;
66335;Laerm;53138;51.496;6.410;2022-12-10T00:47:06;33.59;30.84;37.16;;
66335;Laerm;53138;51.496;6.410;2022-12-10T00:47:16;32.24;29.56;35.84;;
66335;Laerm;53138;51.496;6.410;2022-12-10T00:47:26;33.67;30.93;38.03;;
66335;Laerm;53138;51.496;6.410;2022-12-10T00:47:36;31.69;29.79;34.30;;
66335;Laerm;53138;51.496;6.410;2022-12-10T00:47:47;31.04;29.58;33.35;;
66335;Laerm;53138;51.496;6.410;2022-12-10T00:47:57;30.56;29.09;33.77;;
66335;Laerm;53138;51.496;6.410;2022-12-10T00:48:07;30.26;29.26;31.83;;
66335;Laerm;53138;51.496;6.410;2022-12-10T00:48:17;30.48;28.75;41.98;;
66335;Laerm;53138;51.496;6.410;2022-12-10T00:48:27;30.73;28.66;42.93;;
66335;Laerm;53138;51.496;6.410;2022-12-10T00:48:38;30.17;29.00;32.18;;
66335;Laerm;53138;51.496;6.410;2022-12-10T00:48:48;30.21;28.80;34.37;;
66335;Laerm;53138;51.496;6.410;2022-12-10T00:48:58;30.19;29.01;33.97;;
66335;Laerm;53138;51.496;6.410;2022-12-10T00:49:09;30.00;28.59;32.15;;
66335;Laerm;53138;51.496;6.410;2022-12-10T00:49:19;30.08;28.77;32.57;;
66335;Laerm;53138;51.496;6.410;2022-12-10T00:49:33;30.53;29.22;31.89;;
66335;Laerm;53138;51.496;6.410;2022-12-10T00:49:43;30.87;29.21;32.01;;
66335;Laerm;53138;51.496;6.410;2022-12-10T00:49:53;32.27;29.98;35.11;;
66335;Laerm;53138;51.496;6.410;2022-12-10T00:50:03;36.06;31.16;42.03;;
66335;Laerm;53138;51.496;6.410;2022-12-10T00:50:14;34.13;31.86;37.35;;
66335;Laerm;53138;51.496;6.410;2022-12-10T00:50:24;34.62;31.55;38.00;;
66335;Laerm;53138;51.496;6.410;2022-12-10T00:50:34;31.17;29.31;33.15;;
66335;Laerm;53138;51.496;6.410;2022-12-10T00:50:53;30.34;29.10;31.29;;
66335;Laerm;53138;51.496;6.410;2022-12-10T00:51:05;30.14;28.95;31.90;;
66335;Laerm;53138;51.496;6.410;2022-12-10T00:51:16;30.95;29.09;33.66;;
66335;Laerm;53138;51.496;6.410;2022-12-10T00:51:27;39.87;32.06;44.60;;
66335;Laerm;53138;51.496;6.410;2022-12-10T00:51:37;37.65;32.84;43.63;;
66335;Laerm;53138;51.496;6.410;2022-12-10T00:51:48;37.18;31.57;45.45;;
66335;Laerm;53138;51.496;6.410;2022-12-10T00:51:58;34.26;31.63;37.65;;
66335;Laerm;53138;51.496;6.410;2022-12-10T00:52:09;32.47;30.35;35.02;;
66335;Laerm;53138;51.496;6.410;2022-12-10T00:52:19;31.27;29.94;32.73;;
66335;Laerm;53138;51.496;6.410;2022-12-10T00:52:29;34.76;30.03;41.01;;
66335;Laerm;53138;51.496;6.410;2022-12-10T00:52:39;42.69;36.49;47.47;;
66335;Laerm;53138;51.496;6.410;2022-12-10T00:52:49;41.84;37.19;46.46;;
66335;Laerm;53138;51.496;6.410;2022-12-10T00:53:00;37.67;33.21;42.14;;
66335;Laerm;53138;51.496;6.410;2022-12-10T00:53:10;40.03;36.30;44.24;;
66335;Laerm;53138;51.496;6.410;2022-12-10T00:53:20;38.45;34.94;42.26;;
66335;Laerm;53138;51.496;6.410;2022-12-10T00:53:31;37.43;33.84;40.86;;
66335;Laerm;53138;51.496;6.410;2022-12-10T00:53:41;37.68;34.77;40.14;;
66335;Laerm;53138;51.496;6.410;2022-12-10T00:53:52;41.18;37.70;44.54;;
66335;Laerm;53138;51.496;6.410;2022-12-10T00:54:03;38.14;35.64;40.71;;
66335;Laerm;53138;51.496;6.410;2022-12-10T00:54:13;35.22;32.44;38.02;;
66335;Laerm;53138;51.496;6.410;2022-12-10T00:54:23;35.39;32.84;37.57;;
66335;Laerm;53138;51.496;6.410;2022-12-10T00:54:33;36.51;34.12;38.71;;
66335;Laerm;53138;51.496;6.410;2022-12-10T00:54:44;42.35;35.61;48.01;;
66335;Laerm;53138;51.496;6.410;2022-12-10T00:54:54;43.13;38.71;48.23;;
66335;Laerm;53138;51.496;6.410;2022-12-10T00:55:04;36.25;31.80;41.43;;
66335;Laerm;53138;51.496;6.410;2022-12-10T00:55:14;35.98;32.98;39.90;;
66335;Laerm;53138;51.496;6.410;2022-12-10T00:55:25;35.89;32.57;39.64;;
66335;Laerm;53138;51.496;6.410;2022-12-10T00:55:35;34.28;32.15;36.92;;
66335;Laerm;53138;51.496;6.410;2022-12-10T00:55:45;36.64;31.77;41.80;;
66335;Laerm;53138;51.496;6.410;2022-12-10T00:55:55;38.75;34.26;42.06;;
66335;Laerm;53138;51.496;6.410;2022-12-10T00:56:06;35.34;32.98;37.96;;
66335;Laerm;53138;51.496;6.410;2022-12-10T00:56:17;36.70;33.87;39.86;;
66335;Laerm;53138;51.496;6.410;2022-12-10T00:56:29;38.52;34.07;56.62;;
66335;Laerm;53138;51.496;6.410;2022-12-10T00:56:40;41.66;36.04;46.67;;
66335;Laerm;53138;51.496;6.410;2022-12-10T00:56:50;39.50;35.00;43.30;;
66335;Laerm;53138;51.496;6.410;2022-12-10T00:57:00;36.96;33.80;40.22;;
66335;Laerm;53138;51.496;6.410;2022-12-10T00:57:11;34.77;32.25;37.29;;
66335;Laerm;53138;51.496;6.410;2022-12-10T00:57:21;34.64;31.94;36.72;;
66335;Laerm;53138;51.496;6.410;2022-12-10T00:57:31;33.73;31.70;36.33;;
66335;Laerm;53138;51.496;6.410;2022-12-10T00:57:41;33.40;31.38;35.88;;
66335;Laerm;53138;51.496;6.410;2022-12-10T00:57:51;33.37;31.69;36.23;;
66335;Laerm;53138;51.496;6.410;2022-12-10T00:58:01;33.37;31.14;36.50;;
66335;Laerm;53138;51.496;6.410;2022-12-10T00:58:12;33.17;31.32;35.57;;
66335;Laerm;53138;51.496;6.410;2022-12-10T00:58:22;36.18;32.20;39.11;;
66335;Laerm;53138;51.496;6.410;2022-12-10T00:58:32;36.39;33.75;39.25;;
66335;Laerm;53138;51.496;6.410;2022-12-10T00:58:43;41.47;34.35;47.35;;
66335;Laerm;53138;51.496;6.410;2022-12-10T00:58:53;41.97;37.29;46.38;;
66335;Laerm;53138;51.496;6.410;2022-12-10T00:59:04;40.46;35.51;44.72;;
66335;Laerm;53138;51.496;6.410;2022-12-10T00:59:14;37.47;33.20;40.97;;